sensor_id;sensor_type;location;lat;lon;timestamp;temperature;humidity
32502;DHT22;18952;52.516;13.460;2024-03-17T00:01:03;5.30;62.00
32502;DHT22;18952;52.516;13.460;2024-03-17T00:03:31;5.30;62.00
32502;DHT22;18952;52.516;13.460;2024-03-17T00:06:00;5.30;62.20
32502;DHT22;18952;52.516;13.460;2024-03-17T00:08:27;5.30;62.10
32502;DHT22;18952;52.516;13.460;2024-03-17T00:10:54;5.30;62.20
32502;DHT22;18952;52.516;13.460;2024-03-17T00:13:20;5.30;62.70
32502;DHT22;18952;52.516;13.460;2024-03-17T00:15:48;5.40;62.20
32502;DHT22;18952;52.516;13.460;2024-03-17T00:18:14;5.30;62.40
32502;DHT22;18952;52.516;13.460;2024-03-17T00:20:41;5.20;62.70
32502;DHT22;18952;52.516;13.460;2024-03-17T00:23:09;5.20;63.10
32502;DHT22;18952;52.516;13.460;2024-03-17T00:25:35;5.20;63.20
32502;DHT22;18952;52.516;13.460;2024-03-17T00:28:01;5.30;63.30
32502;DHT22;18952;52.516;13.460;2024-03-17T00:30:29;5.30;62.70
32502;DHT22;18952;52.516;13.460;2024-03-17T00:32:55;5.20;63.00
32502;DHT22;18952;52.516;13.460;2024-03-17T00:35:21;5.20;62.80
32502;DHT22;18952;52.516;13.460;2024-03-17T00:37:49;5.20;62.90
32502;DHT22;18952;52.516;13.460;2024-03-17T00:40:17;5.20;62.90
32502;DHT22;18952;52.516;13.460;2024-03-17T00:42:44;5.20;63.00
32502;DHT22;18952;52.516;13.460;2024-03-17T00:45:10;5.10;62.90
32502;DHT22;18952;52.516;13.460;2024-03-17T00:47:38;5.10;63.00
32502;DHT22;18952;52.516;13.460;2024-03-17T00:50:04;5.00;63.60
32502;DHT22;18952;52.516;13.460;2024-03-17T00:52:31;5.10;63.40
32502;DHT22;18952;52.516;13.460;2024-03-17T00:54:58;5.10;63.30
32502;DHT22;18952;52.516;13.460;2024-03-17T00:57:25;5.10;63.30
32502;DHT22;18952;52.516;13.460;2024-03-17T00:59:53;5.10;63.40
32502;DHT22;18952;52.516;13.460;2024-03-17T01:02:21;5.10;64.10
32502;DHT22;18952;52.516;13.460;2024-03-17T01:04:48;5.10;63.60
32502;DHT22;18952;52.516;13.460;2024-03-17T01:07:14;5.10;63.40
32502;DHT22;18952;52.516;13.460;2024-03-17T01:09:41;5.00;63.50
32502;DHT22;18952;52.516;13.460;2024-03-17T01:12:08;5.10;63.40
32502;DHT22;18952;52.516;13.460;2024-03-17T01:14:35;5.00;63.60
32502;DHT22;18952;52.516;13.460;2024-03-17T01:17:02;5.10;63.20
32502;DHT22;18952;52.516;13.460;2024-03-17T01:19:28;4.90;63.50
32502;DHT22;18952;52.516;13.460;2024-03-17T01:21:55;4.90;63.60
32502;DHT22;18952;52.516;13.460;2024-03-17T01:24:21;5.00;63.20
32502;DHT22;18952;52.516;13.460;2024-03-17T01:26:48;4.90;63.50
32502;DHT22;18952;52.516;13.460;2024-03-17T01:29:15;4.90;63.80
32502;DHT22;18952;52.516;13.460;2024-03-17T01:31:41;4.90;64.00
32502;DHT22;18952;52.516;13.460;2024-03-17T01:34:07;4.80;64.20
32502;DHT22;18952;52.516;13.460;2024-03-17T01:36:33;4.90;64.20
32502;DHT22;18952;52.516;13.460;2024-03-17T01:38:59;4.90;64.50
32502;DHT22;18952;52.516;13.460;2024-03-17T01:41:26;4.80;64.40
32502;DHT22;18952;52.516;13.460;2024-03-17T01:43:53;4.80;64.60
32502;DHT22;18952;52.516;13.460;2024-03-17T01:46:20;4.90;64.40
32502;DHT22;18952;52.516;13.460;2024-03-17T01:48:47;4.80;64.60
32502;DHT22;18952;52.516;13.460;2024-03-17T01:51:15;4.80;65.20
32502;DHT22;18952;52.516;13.460;2024-03-17T01:53:42;4.70;65.00
32502;DHT22;18952;52.516;13.460;2024-03-17T01:56:10;4.70;65.30
32502;DHT22;18952;52.516;13.460;2024-03-17T01:58:38;4.60;65.80
32502;DHT22;18952;52.516;13.460;2024-03-17T02:01:04;4.60;65.70
32502;DHT22;18952;52.516;13.460;2024-03-17T02:03:31;4.60;65.40
32502;DHT22;18952;52.516;13.460;2024-03-17T02:05:58;4.60;65.40
32502;DHT22;18952;52.516;13.460;2024-03-17T02:08:25;4.60;65.30
32502;DHT22;18952;52.516;13.460;2024-03-17T02:10:55;4.60;65.30
32502;DHT22;18952;52.516;13.460;2024-03-17T02:13:24;4.60;65.60
32502;DHT22;18952;52.516;13.460;2024-03-17T02:15:50;4.60;65.80
32502;DHT22;18952;52.516;13.460;2024-03-17T02:18:17;4.60;65.70
32502;DHT22;18952;52.516;13.460;2024-03-17T02:20:44;4.60;65.60
32502;DHT22;18952;52.516;13.460;2024-03-17T02:23:09;4.60;65.50
32502;DHT22;18952;52.516;13.460;2024-03-17T02:25:36;4.60;65.50
32502;DHT22;18952;52.516;13.460;2024-03-17T02:28:03;4.60;65.90
32502;DHT22;18952;52.516;13.460;2024-03-17T02:30:30;4.60;66.00
32502;DHT22;18952;52.516;13.460;2024-03-17T02:32:57;4.60;65.90
32502;DHT22;18952;52.516;13.460;2024-03-17T02:35:26;4.50;66.30
32502;DHT22;18952;52.516;13.460;2024-03-17T02:37:52;4.50;66.00
32502;DHT22;18952;52.516;13.460;2024-03-17T02:40:19;4.50;66.20
32502;DHT22;18952;52.516;13.460;2024-03-17T02:42:45;4.50;66.50
32502;DHT22;18952;52.516;13.460;2024-03-17T02:45:12;4.50;66.40
32502;DHT22;18952;52.516;13.460;2024-03-17T02:47:38;4.40;66.90
32502;DHT22;18952;52.516;13.460;2024-03-17T02:50:05;4.30;67.30
32502;DHT22;18952;52.516;13.460;2024-03-17T02:52:32;4.30;67.50
32502;DHT22;18952;52.516;13.460;2024-03-17T02:54:58;4.20;67.60
32502;DHT22;18952;52.516;13.460;2024-03-17T02:57:26;4.30;67.40
32502;DHT22;18952;52.516;13.460;2024-03-17T02:59:53;4.40;67.30
32502;DHT22;18952;52.516;13.460;2024-03-17T03:02:18;4.30;67.50
32502;DHT22;18952;52.516;13.460;2024-03-17T03:04:45;4.30;67.60
32502;DHT22;18952;52.516;13.460;2024-03-17T03:07:10;4.30;67.80
32502;DHT22;18952;52.516;13.460;2024-03-17T03:09:36;4.20;68.30
32502;DHT22;18952;52.516;13.460;2024-03-17T03:12:03;4.30;67.90
32502;DHT22;18952;52.516;13.460;2024-03-17T03:14:30;4.10;68.20
32502;DHT22;18952;52.516;13.460;2024-03-17T03:16:59;4.10;68.30
32502;DHT22;18952;52.516;13.460;2024-03-17T03:19:27;4.10;68.30
32502;DHT22;18952;52.516;13.460;2024-03-17T03:21:55;4.10;68.40
32502;DHT22;18952;52.516;13.460;2024-03-17T03:24:22;4.10;68.60
32502;DHT22;18952;52.516;13.460;2024-03-17T03:26:49;4.00;68.80
32502;DHT22;18952;52.516;13.460;2024-03-17T03:29:16;3.90;68.90
32502;DHT22;18952;52.516;13.460;2024-03-17T03:31:42;3.90;69.10
32502;DHT22;18952;52.516;13.460;2024-03-17T03:34:09;3.90;69.30
32502;DHT22;18952;52.516;13.460;2024-03-17T03:36:38;3.80;69.40
32502;DHT22;18952;52.516;13.460;2024-03-17T03:39:04;3.90;69.10
32502;DHT22;18952;52.516;13.460;2024-03-17T03:41:31;3.80;69.30
32502;DHT22;18952;52.516;13.460;2024-03-17T03:43:59;3.90;69.20
32502;DHT22;18952;52.516;13.460;2024-03-17T03:46:26;3.90;68.90
32502;DHT22;18952;52.516;13.460;2024-03-17T03:48:53;3.80;69.30
32502;DHT22;18952;52.516;13.460;2024-03-17T03:51:20;3.80;69.20
32502;DHT22;18952;52.516;13.460;2024-03-17T03:53:47;3.90;69.00
32502;DHT22;18952;52.516;13.460;2024-03-17T03:56:13;3.90;68.90
32502;DHT22;18952;52.516;13.460;2024-03-17T03:58:42;3.90;68.70
32502;DHT22;18952;52.516;13.460;2024-03-17T04:01:10;3.90;68.60
32502;DHT22;18952;52.516;13.460;2024-03-17T04:03:36;4.00;68.30
32502;DHT22;18952;52.516;13.460;2024-03-17T04:06:05;4.00;68.50
32502;DHT22;18952;52.516;13.460;2024-03-17T04:08:37;3.90;69.00
32502;DHT22;18952;52.516;13.460;2024-03-17T04:11:04;3.80;69.60
32502;DHT22;18952;52.516;13.460;2024-03-17T04:13:33;3.80;69.30
32502;DHT22;18952;52.516;13.460;2024-03-17T04:16:03;3.70;69.70
32502;DHT22;18952;52.516;13.460;2024-03-17T04:18:31;3.70;70.00
32502;DHT22;18952;52.516;13.460;2024-03-17T04:21:02;3.60;70.30
32502;DHT22;18952;52.516;13.460;2024-03-17T04:23:29;3.70;70.00
32502;DHT22;18952;52.516;13.460;2024-03-17T04:25:55;3.60;70.40
32502;DHT22;18952;52.516;13.460;2024-03-17T04:28:22;3.70;70.20
32502;DHT22;18952;52.516;13.460;2024-03-17T04:30:49;3.50;70.90
32502;DHT22;18952;52.516;13.460;2024-03-17T04:33:15;3.70;70.60
32502;DHT22;18952;52.516;13.460;2024-03-17T04:35:41;3.60;70.90
32502;DHT22;18952;52.516;13.460;2024-03-17T04:38:08;3.70;71.30
32502;DHT22;18952;52.516;13.460;2024-03-17T04:40:40;3.70;71.10
32502;DHT22;18952;52.516;13.460;2024-03-17T04:43:08;3.70;71.30
32502;DHT22;18952;52.516;13.460;2024-03-17T04:45:36;3.70;71.30
32502;DHT22;18952;52.516;13.460;2024-03-17T04:48:03;3.60;71.60
32502;DHT22;18952;52.516;13.460;2024-03-17T04:50:29;3.70;71.60
32502;DHT22;18952;52.516;13.460;2024-03-17T04:52:56;3.50;72.20
32502;DHT22;18952;52.516;13.460;2024-03-17T04:55:22;3.60;71.90
32502;DHT22;18952;52.516;13.460;2024-03-17T04:57:48;3.60;72.40
32502;DHT22;18952;52.516;13.460;2024-03-17T05:00:15;3.60;72.00
32502;DHT22;18952;52.516;13.460;2024-03-17T05:02:41;3.50;72.10
32502;DHT22;18952;52.516;13.460;2024-03-17T05:05:07;3.40;72.70
32502;DHT22;18952;52.516;13.460;2024-03-17T05:07:34;3.40;72.70
32502;DHT22;18952;52.516;13.460;2024-03-17T05:10:00;3.50;72.20
32502;DHT22;18952;52.516;13.460;2024-03-17T05:12:27;3.50;71.70
32502;DHT22;18952;52.516;13.460;2024-03-17T05:14:56;3.50;72.00
32502;DHT22;18952;52.516;13.460;2024-03-17T05:17:22;3.50;72.00
32502;DHT22;18952;52.516;13.460;2024-03-17T05:19:48;3.50;71.20
32502;DHT22;18952;52.516;13.460;2024-03-17T05:22:15;3.50;71.00
32502;DHT22;18952;52.516;13.460;2024-03-17T05:24:42;3.50;71.20
32502;DHT22;18952;52.516;13.460;2024-03-17T05:27:08;3.50;71.30
32502;DHT22;18952;52.516;13.460;2024-03-17T05:29:35;3.40;71.70
32502;DHT22;18952;52.516;13.460;2024-03-17T05:32:01;3.40;71.70
32502;DHT22;18952;52.516;13.460;2024-03-17T05:34:28;3.30;71.80
32502;DHT22;18952;52.516;13.460;2024-03-17T05:36:53;3.30;71.90
32502;DHT22;18952;52.516;13.460;2024-03-17T05:39:20;3.40;72.00
32502;DHT22;18952;52.516;13.460;2024-03-17T05:41:47;3.40;71.90
32502;DHT22;18952;52.516;13.460;2024-03-17T05:44:12;3.40;71.80
32502;DHT22;18952;52.516;13.460;2024-03-17T05:46:40;3.40;71.80
32502;DHT22;18952;52.516;13.460;2024-03-17T05:49:07;3.40;71.90
32502;DHT22;18952;52.516;13.460;2024-03-17T05:51:34;3.40;71.40
32502;DHT22;18952;52.516;13.460;2024-03-17T05:54:01;3.40;71.30
32502;DHT22;18952;52.516;13.460;2024-03-17T05:56:29;3.40;71.40
32502;DHT22;18952;52.516;13.460;2024-03-17T05:58:56;3.40;71.10
32502;DHT22;18952;52.516;13.460;2024-03-17T06:01:23;3.40;71.10
32502;DHT22;18952;52.516;13.460;2024-03-17T06:03:50;3.40;71.20
32502;DHT22;18952;52.516;13.460;2024-03-17T06:06:16;3.50;71.00
32502;DHT22;18952;52.516;13.460;2024-03-17T06:08:42;3.50;71.00
32502;DHT22;18952;52.516;13.460;2024-03-17T06:11:07;3.40;71.40
32502;DHT22;18952;52.516;13.460;2024-03-17T06:13:34;3.40;71.60
32502;DHT22;18952;52.516;13.460;2024-03-17T06:16:04;3.50;71.60
32502;DHT22;18952;52.516;13.460;2024-03-17T06:18:31;3.40;71.90
32502;DHT22;18952;52.516;13.460;2024-03-17T06:20:57;3.50;71.90
32502;DHT22;18952;52.516;13.460;2024-03-17T06:23:24;3.40;72.10
32502;DHT22;18952;52.516;13.460;2024-03-17T06:25:51;3.40;72.30
32502;DHT22;18952;52.516;13.460;2024-03-17T06:28:17;3.50;71.70
32502;DHT22;18952;52.516;13.460;2024-03-17T06:30:45;3.50;71.50
32502;DHT22;18952;52.516;13.460;2024-03-17T06:33:13;3.50;72.00
32502;DHT22;18952;52.516;13.460;2024-03-17T06:35:39;3.50;71.60
32502;DHT22;18952;52.516;13.460;2024-03-17T06:38:06;3.60;71.40
32502;DHT22;18952;52.516;13.460;2024-03-17T06:40:33;3.60;71.40
32502;DHT22;18952;52.516;13.460;2024-03-17T06:42:59;3.70;71.20
32502;DHT22;18952;52.516;13.460;2024-03-17T06:45:25;3.70;71.10
32502;DHT22;18952;52.516;13.460;2024-03-17T06:47:52;3.80;70.60
32502;DHT22;18952;52.516;13.460;2024-03-17T06:50:18;3.90;70.50
32502;DHT22;18952;52.516;13.460;2024-03-17T06:52:44;3.90;70.40
32502;DHT22;18952;52.516;13.460;2024-03-17T06:55:11;3.90;70.10
32502;DHT22;18952;52.516;13.460;2024-03-17T06:57:37;3.90;69.80
32502;DHT22;18952;52.516;13.460;2024-03-17T07:00:04;4.00;69.70
32502;DHT22;18952;52.516;13.460;2024-03-17T07:02:30;3.90;69.70
32502;DHT22;18952;52.516;13.460;2024-03-17T07:04:57;4.00;69.50
32502;DHT22;18952;52.516;13.460;2024-03-17T07:07:29;4.20;69.00
32502;DHT22;18952;52.516;13.460;2024-03-17T07:09:57;4.20;68.40
32502;DHT22;18952;52.516;13.460;2024-03-17T07:12:25;4.20;68.50
32502;DHT22;18952;52.516;13.460;2024-03-17T07:14:52;4.40;68.50
32502;DHT22;18952;52.516;13.460;2024-03-17T07:17:19;4.60;67.50
32502;DHT22;18952;52.516;13.460;2024-03-17T07:19:47;4.60;66.50
32502;DHT22;18952;52.516;13.460;2024-03-17T07:22:14;4.50;66.80
32502;DHT22;18952;52.516;13.460;2024-03-17T07:24:41;4.60;66.60
32502;DHT22;18952;52.516;13.460;2024-03-17T07:27:08;4.50;65.90
32502;DHT22;18952;52.516;13.460;2024-03-17T07:29:34;4.60;66.10
32502;DHT22;18952;52.516;13.460;2024-03-17T07:32:03;4.80;65.70
32502;DHT22;18952;52.516;13.460;2024-03-17T07:34:31;4.70;65.40
32502;DHT22;18952;52.516;13.460;2024-03-17T07:37:00;4.80;65.50
32502;DHT22;18952;52.516;13.460;2024-03-17T07:39:30;4.80;65.30
32502;DHT22;18952;52.516;13.460;2024-03-17T07:41:57;4.80;65.10
32502;DHT22;18952;52.516;13.460;2024-03-17T07:44:23;5.00;64.60
32502;DHT22;18952;52.516;13.460;2024-03-17T07:46:49;5.00;64.20
32502;DHT22;18952;52.516;13.460;2024-03-17T07:49:16;5.00;63.90
32502;DHT22;18952;52.516;13.460;2024-03-17T07:51:43;5.10;64.20
32502;DHT22;18952;52.516;13.460;2024-03-17T07:54:10;5.10;64.40
32502;DHT22;18952;52.516;13.460;2024-03-17T07:56:36;5.10;63.50
32502;DHT22;18952;52.516;13.460;2024-03-17T07:59:02;5.10;63.60
32502;DHT22;18952;52.516;13.460;2024-03-17T08:01:29;5.20;63.30
32502;DHT22;18952;52.516;13.460;2024-03-17T08:03:54;5.20;63.10
32502;DHT22;18952;52.516;13.460;2024-03-17T08:06:21;5.30;63.00
32502;DHT22;18952;52.516;13.460;2024-03-17T08:08:49;5.20;63.20
32502;DHT22;18952;52.516;13.460;2024-03-17T08:11:14;5.20;63.10
32502;DHT22;18952;52.516;13.460;2024-03-17T08:13:41;5.20;62.70
32502;DHT22;18952;52.516;13.460;2024-03-17T08:16:09;5.30;62.10
32502;DHT22;18952;52.516;13.460;2024-03-17T08:18:35;5.30;62.00
32502;DHT22;18952;52.516;13.460;2024-03-17T08:21:03;5.30;62.10
32502;DHT22;18952;52.516;13.460;2024-03-17T08:23:29;5.30;61.70
32502;DHT22;18952;52.516;13.460;2024-03-17T08:26:00;5.40;61.40
32502;DHT22;18952;52.516;13.460;2024-03-17T08:28:28;5.40;61.70
32502;DHT22;18952;52.516;13.460;2024-03-17T08:30:55;5.60;61.50
32502;DHT22;18952;52.516;13.460;2024-03-17T08:33:23;5.70;61.30
32502;DHT22;18952;52.516;13.460;2024-03-17T08:36:07;5.90;60.60
32502;DHT22;18952;52.516;13.460;2024-03-17T08:38:36;5.90;60.70
32502;DHT22;18952;52.516;13.460;2024-03-17T08:41:07;5.90;60.00
32502;DHT22;18952;52.516;13.460;2024-03-17T08:43:34;5.90;59.60
32502;DHT22;18952;52.516;13.460;2024-03-17T08:46:06;6.10;60.00
32502;DHT22;18952;52.516;13.460;2024-03-17T08:48:39;6.30;59.10
32502;DHT22;18952;52.516;13.460;2024-03-17T08:51:24;6.40;58.30
32502;DHT22;18952;52.516;13.460;2024-03-17T08:53:51;6.50;57.90
32502;DHT22;18952;52.516;13.460;2024-03-17T08:56:18;6.60;56.60
32502;DHT22;18952;52.516;13.460;2024-03-17T08:58:45;6.70;56.50
32502;DHT22;18952;52.516;13.460;2024-03-17T09:01:15;6.60;55.80
32502;DHT22;18952;52.516;13.460;2024-03-17T09:03:42;6.40;56.10
32502;DHT22;18952;52.516;13.460;2024-03-17T09:06:15;6.30;55.80
32502;DHT22;18952;52.516;13.460;2024-03-17T09:08:42;6.50;56.00
32502;DHT22;18952;52.516;13.460;2024-03-17T09:11:14;6.50;55.70
32502;DHT22;18952;52.516;13.460;2024-03-17T09:13:41;6.50;55.90
32502;DHT22;18952;52.516;13.460;2024-03-17T09:16:08;6.40;55.40
32502;DHT22;18952;52.516;13.460;2024-03-17T09:18:37;6.30;55.50
32502;DHT22;18952;52.516;13.460;2024-03-17T09:21:04;6.30;56.20
32502;DHT22;18952;52.516;13.460;2024-03-17T09:23:32;6.30;56.10
32502;DHT22;18952;52.516;13.460;2024-03-17T09:26:06;6.40;56.10
32502;DHT22;18952;52.516;13.460;2024-03-17T09:28:34;6.40;55.60
32502;DHT22;18952;52.516;13.460;2024-03-17T09:31:00;6.40;56.00
32502;DHT22;18952;52.516;13.460;2024-03-17T09:33:28;6.50;55.90
32502;DHT22;18952;52.516;13.460;2024-03-17T09:36:01;6.60;56.30
32502;DHT22;18952;52.516;13.460;2024-03-17T09:38:29;6.80;55.60
32502;DHT22;18952;52.516;13.460;2024-03-17T09:40:56;6.90;55.00
32502;DHT22;18952;52.516;13.460;2024-03-17T09:43:24;7.10;54.70
32502;DHT22;18952;52.516;13.460;2024-03-17T09:45:51;7.30;53.50
32502;DHT22;18952;52.516;13.460;2024-03-17T09:48:18;7.40;54.20
32502;DHT22;18952;52.516;13.460;2024-03-17T09:50:55;7.40;53.50
32502;DHT22;18952;52.516;13.460;2024-03-17T09:53:27;7.20;53.20
32502;DHT22;18952;52.516;13.460;2024-03-17T09:56:01;7.10;52.90
32502;DHT22;18952;52.516;13.460;2024-03-17T09:58:30;7.00;52.40
32502;DHT22;18952;52.516;13.460;2024-03-17T10:00:56;7.20;52.80
32502;DHT22;18952;52.516;13.460;2024-03-17T10:03:53;7.40;52.30
32502;DHT22;18952;52.516;13.460;2024-03-17T10:06:24;7.70;51.80
32502;DHT22;18952;52.516;13.460;2024-03-17T10:08:58;7.80;51.40
32502;DHT22;18952;52.516;13.460;2024-03-17T10:11:34;7.90;51.10
32502;DHT22;18952;52.516;13.460;2024-03-17T10:14:05;7.80;50.30
32502;DHT22;18952;52.516;13.460;2024-03-17T10:16:34;7.90;50.80
32502;DHT22;18952;52.516;13.460;2024-03-17T10:21:38;7.60;51.40
32502;DHT22;18952;52.516;13.460;2024-03-17T10:24:28;7.80;51.00
32502;DHT22;18952;52.516;13.460;2024-03-17T10:26:57;7.60;51.10
32502;DHT22;18952;52.516;13.460;2024-03-17T10:29:27;7.70;51.50
32502;DHT22;18952;52.516;13.460;2024-03-17T10:31:59;7.90;51.00
32502;DHT22;18952;52.516;13.460;2024-03-17T10:34:27;8.00;49.90
32502;DHT22;18952;52.516;13.460;2024-03-17T10:37:11;7.80;50.50
32502;DHT22;18952;52.516;13.460;2024-03-17T10:39:41;7.80;50.50
32502;DHT22;18952;52.516;13.460;2024-03-17T10:42:11;7.80;50.10
32502;DHT22;18952;52.516;13.460;2024-03-17T10:44:40;7.70;50.60
32502;DHT22;18952;52.516;13.460;2024-03-17T10:47:26;7.60;50.30
32502;DHT22;18952;52.516;13.460;2024-03-17T10:49:55;7.50;50.10
32502;DHT22;18952;52.516;13.460;2024-03-17T10:52:24;7.40;50.70
32502;DHT22;18952;52.516;13.460;2024-03-17T10:54:55;7.60;51.00
32502;DHT22;18952;52.516;13.460;2024-03-17T10:57:47;7.80;49.80
32502;DHT22;18952;52.516;13.460;2024-03-17T11:00:20;7.80;49.90
32502;DHT22;18952;52.516;13.460;2024-03-17T11:02:51;7.70;49.80
32502;DHT22;18952;52.516;13.460;2024-03-17T11:05:28;7.60;49.30
32502;DHT22;18952;52.516;13.460;2024-03-17T11:08:15;7.70;49.10
32502;DHT22;18952;52.516;13.460;2024-03-17T11:10:52;7.60;49.00
32502;DHT22;18952;52.516;13.460;2024-03-17T11:13:25;7.80;47.90
32502;DHT22;18952;52.516;13.460;2024-03-17T11:15:52;7.80;49.20
32502;DHT22;18952;52.516;13.460;2024-03-17T11:21:07;7.90;48.70
32502;DHT22;18952;52.516;13.460;2024-03-17T11:23:34;7.70;47.50
32502;DHT22;18952;52.516;13.460;2024-03-17T11:26:00;7.50;48.00
32502;DHT22;18952;52.516;13.460;2024-03-17T11:28:46;7.50;47.90
32502;DHT22;18952;52.516;13.460;2024-03-17T11:31:45;7.40;47.30
32502;DHT22;18952;52.516;13.460;2024-03-17T11:34:41;7.50;47.00
32502;DHT22;18952;52.516;13.460;2024-03-17T11:37:40;7.70;47.70
32502;DHT22;18952;52.516;13.460;2024-03-17T11:40:26;7.60;47.70
32502;DHT22;18952;52.516;13.460;2024-03-17T11:43:03;7.60;48.00
32502;DHT22;18952;52.516;13.460;2024-03-17T11:45:29;7.50;48.00
32502;DHT22;18952;52.516;13.460;2024-03-17T11:47:57;7.40;48.30
32502;DHT22;18952;52.516;13.460;2024-03-17T11:50:25;7.60;48.50
32502;DHT22;18952;52.516;13.460;2024-03-17T11:52:58;7.80;48.00
32502;DHT22;18952;52.516;13.460;2024-03-17T11:55:25;8.00;46.90
32502;DHT22;18952;52.516;13.460;2024-03-17T11:57:59;7.90;45.80
32502;DHT22;18952;52.516;13.460;2024-03-17T12:00:25;7.90;46.30
32502;DHT22;18952;52.516;13.460;2024-03-17T12:02:52;7.90;46.70
32502;DHT22;18952;52.516;13.460;2024-03-17T12:05:18;8.00;48.00
32502;DHT22;18952;52.516;13.460;2024-03-17T12:07:46;8.10;47.60
32502;DHT22;18952;52.516;13.460;2024-03-17T12:10:14;8.40;48.10
32502;DHT22;18952;52.516;13.460;2024-03-17T12:12:40;8.50;46.00
32502;DHT22;18952;52.516;13.460;2024-03-17T12:15:17;8.70;46.00
32502;DHT22;18952;52.516;13.460;2024-03-17T12:17:45;8.90;44.90
32502;DHT22;18952;52.516;13.460;2024-03-17T12:20:19;9.10;44.10
32502;DHT22;18952;52.516;13.460;2024-03-17T12:22:48;9.10;44.60
32502;DHT22;18952;52.516;13.460;2024-03-17T12:25:21;9.20;43.70
32502;DHT22;18952;52.516;13.460;2024-03-17T12:27:48;9.10;44.30
32502;DHT22;18952;52.516;13.460;2024-03-17T12:30:15;9.30;43.10
32502;DHT22;18952;52.516;13.460;2024-03-17T12:32:41;9.30;43.50
32502;DHT22;18952;52.516;13.460;2024-03-17T12:35:14;9.30;43.20
32502;DHT22;18952;52.516;13.460;2024-03-17T12:37:42;9.40;43.50
32502;DHT22;18952;52.516;13.460;2024-03-17T12:40:18;9.40;43.40
32502;DHT22;18952;52.516;13.460;2024-03-17T12:42:49;9.50;43.60
32502;DHT22;18952;52.516;13.460;2024-03-17T12:45:22;9.70;42.80
32502;DHT22;18952;52.516;13.460;2024-03-17T12:47:50;10.10;42.70
32502;DHT22;18952;52.516;13.460;2024-03-17T12:50:18;10.30;41.10
32502;DHT22;18952;52.516;13.460;2024-03-17T12:52:55;10.30;41.10
32502;DHT22;18952;52.516;13.460;2024-03-17T12:55:22;10.10;41.70
32502;DHT22;18952;52.516;13.460;2024-03-17T12:57:54;10.20;41.50
32502;DHT22;18952;52.516;13.460;2024-03-17T13:00:31;10.00;41.60
32502;DHT22;18952;52.516;13.460;2024-03-17T13:02:59;10.00;41.40
32502;DHT22;18952;52.516;13.460;2024-03-17T13:05:25;10.00;41.50
32502;DHT22;18952;52.516;13.460;2024-03-17T13:07:53;10.00;41.50
32502;DHT22;18952;52.516;13.460;2024-03-17T13:10:21;10.10;41.10
32502;DHT22;18952;52.516;13.460;2024-03-17T13:12:48;10.10;41.60
32502;DHT22;18952;52.516;13.460;2024-03-17T13:15:15;10.10;41.30
32502;DHT22;18952;52.516;13.460;2024-03-17T13:17:44;10.30;40.90
32502;DHT22;18952;52.516;13.460;2024-03-17T13:20:16;10.20;41.00
32502;DHT22;18952;52.516;13.460;2024-03-17T13:22:44;10.40;40.80
32502;DHT22;18952;52.516;13.460;2024-03-17T13:25:18;10.50;41.10
32502;DHT22;18952;52.516;13.460;2024-03-17T13:27:47;10.50;40.60
32502;DHT22;18952;52.516;13.460;2024-03-17T13:30:15;10.50;40.80
32502;DHT22;18952;52.516;13.460;2024-03-17T13:32:42;10.60;40.10
32502;DHT22;18952;52.516;13.460;2024-03-17T13:35:15;10.50;40.00
32502;DHT22;18952;52.516;13.460;2024-03-17T13:37:47;10.30;39.90
32502;DHT22;18952;52.516;13.460;2024-03-17T13:40:15;10.40;39.90
32502;DHT22;18952;52.516;13.460;2024-03-17T13:42:40;10.20;40.40
32502;DHT22;18952;52.516;13.460;2024-03-17T13:45:11;10.10;40.60
32502;DHT22;18952;52.516;13.460;2024-03-17T13:47:43;10.30;40.50
32502;DHT22;18952;52.516;13.460;2024-03-17T13:50:11;10.40;40.00
32502;DHT22;18952;52.516;13.460;2024-03-17T13:52:39;10.30;40.50
32502;DHT22;18952;52.516;13.460;2024-03-17T13:55:13;10.10;41.50
32502;DHT22;18952;52.516;13.460;2024-03-17T13:57:46;9.70;41.40
32502;DHT22;18952;52.516;13.460;2024-03-17T14:00:13;9.70;42.20
32502;DHT22;18952;52.516;13.460;2024-03-17T14:02:44;9.80;42.20
32502;DHT22;18952;52.516;13.460;2024-03-17T14:05:16;10.30;43.00
32502;DHT22;18952;52.516;13.460;2024-03-17T14:07:42;10.90;41.20
32502;DHT22;18952;52.516;13.460;2024-03-17T14:10:10;11.20;38.10
32502;DHT22;18952;52.516;13.460;2024-03-17T14:12:38;11.40;37.90
32502;DHT22;18952;52.516;13.460;2024-03-17T14:15:04;11.40;37.30
32502;DHT22;18952;52.516;13.460;2024-03-17T14:17:31;11.70;37.40
32502;DHT22;18952;52.516;13.460;2024-03-17T14:19:58;12.10;37.50
32502;DHT22;18952;52.516;13.460;2024-03-17T14:22:24;12.30;37.00
32502;DHT22;18952;52.516;13.460;2024-03-17T14:24:50;12.60;36.30
32502;DHT22;18952;52.516;13.460;2024-03-17T14:27:18;12.40;36.70
32502;DHT22;18952;52.516;13.460;2024-03-17T14:29:44;12.40;36.40
32502;DHT22;18952;52.516;13.460;2024-03-17T14:32:10;12.20;37.10
32502;DHT22;18952;52.516;13.460;2024-03-17T14:34:38;12.10;37.10
32502;DHT22;18952;52.516;13.460;2024-03-17T14:37:04;12.10;37.80
32502;DHT22;18952;52.516;13.460;2024-03-17T14:39:31;12.20;37.90
32502;DHT22;18952;52.516;13.460;2024-03-17T14:41:57;12.30;38.00
32502;DHT22;18952;52.516;13.460;2024-03-17T14:44:25;11.60;38.20
32502;DHT22;18952;52.516;13.460;2024-03-17T14:46:51;11.40;39.60
32502;DHT22;18952;52.516;13.460;2024-03-17T14:49:18;11.30;39.90
32502;DHT22;18952;52.516;13.460;2024-03-17T14:51:44;11.20;39.80
32502;DHT22;18952;52.516;13.460;2024-03-17T14:54:12;11.30;40.60
32502;DHT22;18952;52.516;13.460;2024-03-17T14:56:37;11.20;40.30
32502;DHT22;18952;52.516;13.460;2024-03-17T14:59:03;11.30;40.50
32502;DHT22;18952;52.516;13.460;2024-03-17T15:01:31;11.20;40.40
32502;DHT22;18952;52.516;13.460;2024-03-17T15:03:56;11.10;41.40
32502;DHT22;18952;52.516;13.460;2024-03-17T15:06:25;11.30;40.90
32502;DHT22;18952;52.516;13.460;2024-03-17T15:08:52;10.90;40.90
32502;DHT22;18952;52.516;13.460;2024-03-17T15:11:18;10.60;41.80
32502;DHT22;18952;52.516;13.460;2024-03-17T15:13:45;10.40;42.20
32502;DHT22;18952;52.516;13.460;2024-03-17T15:16:11;10.30;42.90
32502;DHT22;18952;52.516;13.460;2024-03-17T15:18:38;10.30;42.80
32502;DHT22;18952;52.516;13.460;2024-03-17T15:21:04;9.90;42.80
32502;DHT22;18952;52.516;13.460;2024-03-17T15:23:31;9.60;43.50
32502;DHT22;18952;52.516;13.460;2024-03-17T15:26:04;9.50;43.60
32502;DHT22;18952;52.516;13.460;2024-03-17T15:28:30;9.60;43.50
32502;DHT22;18952;52.516;13.460;2024-03-17T15:30:57;9.80;42.80
32502;DHT22;18952;52.516;13.460;2024-03-17T15:33:23;9.80;42.20
32502;DHT22;18952;52.516;13.460;2024-03-17T15:35:54;10.00;42.60
32502;DHT22;18952;52.516;13.460;2024-03-17T15:38:20;10.40;41.60
32502;DHT22;18952;52.516;13.460;2024-03-17T15:40:47;10.60;41.20